Terminal Aerodrome Forecast
Issued by NWS Charleston, WV

Current Version | Previous Version | Graphics & Text | Print | Product List | Glossary On
Versions: 1 2 3 4 5 6 7 8 9 10 11 12 13 14 15 16 17 18 19 20 21
000
FTUS41 KRLX 280500
TAFBKW
TAF
KBKW 280529Z 2806/2906 00000KT P6SM BKN025
     FM281000 00000KT 6SM BR BKN010
     FM281300 VRB03KT P6SM BKN009
     FM281600 34005KT P6SM BKN015
     FM281700 33005KT P6SM SCT025=

USA.gov is the U.S. government's official web portal to all federal, state and local government web resources and services.